createdAt,value
2023-05-14T00:01:52.024Z,13.40
2023-05-14T00:04:20.508Z,13.40
2023-05-14T00:06:50.097Z,13.30
2023-05-14T00:09:18.509Z,13.30
2023-05-14T00:11:47.146Z,13.30
2023-05-14T00:14:15.130Z,13.30
2023-05-14T00:16:43.159Z,13.30
2023-05-14T00:19:11.163Z,13.20
2023-05-14T00:21:39.376Z,13.30
2023-05-14T00:24:09.151Z,13.20
2023-05-14T00:26:37.075Z,13.10
2023-05-14T00:29:04.997Z,13.10
2023-05-14T00:31:32.991Z,13.10
2023-05-14T00:34:00.975Z,13.10
2023-05-14T00:36:29.092Z,13.10
2023-05-14T00:38:57.104Z,13.10
2023-05-14T00:41:26.496Z,13.10
2023-05-14T00:43:54.511Z,13.10
2023-05-14T00:46:22.965Z,13.10
2023-05-14T00:48:51.052Z,13.00
2023-05-14T00:51:20.698Z,13.00
2023-05-14T00:53:49.242Z,12.90
2023-05-14T00:56:17.680Z,12.90
2023-05-14T00:58:47.067Z,12.90
2023-05-14T01:01:16.923Z,12.80
2023-05-14T01:03:45.725Z,12.80
2023-05-14T01:06:19.552Z,12.70
2023-05-14T01:09:10.127Z,12.70
2023-05-14T01:11:43.558Z,12.70
2023-05-14T01:14:22.461Z,12.70
2023-05-14T01:16:53.318Z,12.70
2023-05-14T01:19:28.096Z,12.70
2023-05-14T01:21:57.374Z,12.70
2023-05-14T01:24:25.444Z,12.70
2023-05-14T01:26:54.742Z,12.60
2023-05-14T01:29:24.229Z,12.60
2023-05-14T01:31:55.148Z,12.60
2023-05-14T01:34:28.558Z,12.60
2023-05-14T01:36:58.961Z,12.60
2023-05-14T01:39:31.948Z,12.60
2023-05-14T01:42:00.991Z,12.70
2023-05-14T01:44:29.132Z,12.60
2023-05-14T01:46:57.122Z,12.60
2023-05-14T01:49:25.086Z,12.70
2023-05-14T01:51:53.073Z,12.60
2023-05-14T01:54:22.768Z,12.60
2023-05-14T01:56:51.229Z,12.70
2023-05-14T01:59:19.151Z,12.60
2023-05-14T02:01:47.118Z,12.70
2023-05-14T02:04:15.611Z,12.70
2023-05-14T02:06:43.700Z,12.80
2023-05-14T02:09:11.830Z,12.80
2023-05-14T02:11:41.145Z,12.70
2023-05-14T02:14:09.123Z,12.50
2023-05-14T02:16:37.098Z,12.40
2023-05-14T02:19:05.141Z,12.40
2023-05-14T02:21:33.355Z,12.30
2023-05-14T02:24:01.362Z,12.30
2023-05-14T02:26:29.410Z,12.30
2023-05-14T02:28:58.950Z,12.30
2023-05-14T02:31:27.043Z,12.30
2023-05-14T02:33:55.048Z,12.30
2023-05-14T02:36:23.052Z,12.20
2023-05-14T02:38:50.996Z,12.20
2023-05-14T02:41:19.006Z,12.10
2023-05-14T02:43:46.969Z,12.20
2023-05-14T02:46:16.331Z,12.10
2023-05-14T02:48:44.269Z,12.10
2023-05-14T02:51:12.208Z,12.10
2023-05-14T02:53:40.219Z,12.10
2023-05-14T02:56:08.416Z,12.10
2023-05-14T02:58:36.403Z,12.10
2023-05-14T03:01:04.442Z,12.10
2023-05-14T03:03:34.903Z,12.00
2023-05-14T03:06:03.016Z,12.10
2023-05-14T03:08:31.213Z,12.10
2023-05-14T03:10:59.315Z,12.10
2023-05-14T03:13:27.382Z,12.10
2023-05-14T03:15:55.763Z,12.00
2023-05-14T03:18:24.178Z,12.00
2023-05-14T03:20:54.050Z,12.00
2023-05-14T03:23:22.043Z,12.00
2023-05-14T03:25:49.956Z,12.10
2023-05-14T03:28:17.874Z,12.10
2023-05-14T03:30:47.680Z,12.10
2023-05-14T03:33:15.751Z,12.00
2023-05-14T03:35:43.714Z,12.10
2023-05-14T03:38:12.992Z,12.10
2023-05-14T03:40:40.927Z,12.10
2023-05-14T03:43:08.840Z,12.20
2023-05-14T03:45:37.011Z,12.20
2023-05-14T03:48:05.607Z,12.20
2023-05-14T03:50:33.752Z,12.20
2023-05-14T03:53:01.704Z,12.10
2023-05-14T03:55:31.065Z,12.10
2023-05-14T03:57:58.991Z,12.10
2023-05-14T04:00:27.100Z,12.10
2023-05-14T04:02:55.419Z,12.10
2023-05-14T04:05:23.476Z,12.10
2023-05-14T04:07:52.540Z,12.10
2023-05-14T04:10:20.544Z,12.10
2023-05-14T04:12:52.142Z,12.20
2023-05-14T04:15:20.089Z,12.20
2023-05-14T04:17:48.170Z,12.20
2023-05-14T04:20:16.267Z,12.20
2023-05-14T04:22:44.247Z,12.20
2023-05-14T04:25:12.188Z,12.20
2023-05-14T04:27:40.141Z,12.20
2023-05-14T04:30:11.639Z,12.20
2023-05-14T04:32:40.018Z,12.30
2023-05-14T04:35:10.208Z,12.30
2023-05-14T04:37:38.272Z,12.30
2023-05-14T04:40:08.021Z,12.30
2023-05-14T04:42:36.116Z,12.20
2023-05-14T04:45:05.238Z,12.30
2023-05-14T04:47:34.609Z,12.30
2023-05-14T04:50:02.757Z,12.40
2023-05-14T04:52:30.678Z,12.40
2023-05-14T04:54:58.649Z,12.40
2023-05-14T04:57:26.603Z,12.50
2023-05-14T04:59:54.616Z,12.50
2023-05-14T05:02:22.564Z,12.50
2023-05-14T05:04:51.877Z,12.60
2023-05-14T05:07:19.813Z,12.60
2023-05-14T05:09:47.809Z,12.60
2023-05-14T05:12:15.796Z,12.60
2023-05-14T05:14:43.767Z,12.70
2023-05-14T05:17:11.740Z,12.80
2023-05-14T05:19:44.177Z,12.90
2023-05-14T05:22:14.142Z,12.90
2023-05-14T05:24:42.060Z,13.00
2023-05-14T05:27:10.172Z,13.00
2023-05-14T05:29:38.311Z,13.10
2023-05-14T05:32:07.442Z,13.10
2023-05-14T05:34:35.946Z,13.20
2023-05-14T05:37:05.152Z,13.20
2023-05-14T05:39:35.093Z,13.10
2023-05-14T05:42:03.529Z,13.10
2023-05-14T05:44:31.796Z,13.10
2023-05-14T05:47:01.432Z,13.10
2023-05-14T05:49:29.450Z,13.10
2023-05-14T05:51:57.526Z,13.10
2023-05-14T05:54:29.486Z,13.10
2023-05-14T05:56:58.897Z,13.10
2023-05-14T05:59:26.851Z,13.20
2023-05-14T06:01:54.872Z,13.20
2023-05-14T06:04:22.981Z,13.20
2023-05-14T06:06:51.330Z,13.10
2023-05-14T06:09:19.260Z,13.10
2023-05-14T06:11:47.182Z,13.10
2023-05-14T06:14:16.491Z,13.10
2023-05-14T06:16:44.422Z,13.10
2023-05-14T06:19:12.587Z,13.00
2023-05-14T06:21:40.715Z,13.00
2023-05-14T06:24:09.116Z,13.00
2023-05-14T06:26:37.011Z,13.10
2023-05-14T06:29:04.953Z,13.30
2023-05-14T06:31:34.345Z,13.40
2023-05-14T06:34:02.280Z,13.40
2023-05-14T06:36:30.246Z,13.40
2023-05-14T06:38:58.140Z,13.40
2023-05-14T06:41:26.195Z,13.30
2023-05-14T06:43:55.292Z,13.30
2023-05-14T06:46:23.311Z,13.30
2023-05-14T06:48:52.692Z,13.20
2023-05-14T06:51:20.660Z,13.20
2023-05-14T06:53:48.906Z,13.10
2023-05-14T06:56:16.886Z,13.10
2023-05-14T06:58:44.837Z,13.20
2023-05-14T07:01:12.820Z,13.20
2023-05-14T07:03:40.958Z,13.30
2023-05-14T07:06:11.884Z,13.30
2023-05-14T07:08:41.870Z,13.30
2023-05-14T07:11:09.835Z,13.40
2023-05-14T07:13:37.808Z,13.30
2023-05-14T07:16:06.457Z,13.40
2023-05-14T07:18:34.507Z,13.40
2023-05-14T07:21:02.457Z,13.50
2023-05-14T07:23:31.796Z,13.50
2023-05-14T07:25:59.769Z,13.50
2023-05-14T07:28:27.755Z,13.50
2023-05-14T07:30:55.712Z,13.50
2023-05-14T07:33:24.141Z,13.50
2023-05-14T07:35:52.372Z,13.50
2023-05-14T07:38:20.945Z,13.50
2023-05-14T07:40:50.226Z,13.60
2023-05-14T07:43:18.186Z,13.60
2023-05-14T07:45:46.307Z,13.50
2023-05-14T07:48:14.320Z,13.50
2023-05-14T07:50:42.343Z,13.60
2023-05-14T07:53:10.292Z,13.60
2023-05-14T07:55:38.351Z,13.60
2023-05-14T07:58:08.932Z,13.60
2023-05-14T08:00:39.201Z,13.60
2023-05-14T08:03:07.438Z,13.70
2023-05-14T08:05:36.731Z,13.70
2023-05-14T08:08:04.900Z,13.80
2023-05-14T08:10:34.905Z,13.90
2023-05-14T08:13:03.030Z,14.10
2023-05-14T08:15:32.425Z,14.30
2023-05-14T08:18:03.794Z,14.50
2023-05-14T08:20:37.662Z,14.60
2023-05-14T08:23:08.433Z,14.60
2023-05-14T08:25:37.459Z,14.60
2023-05-14T08:28:05.697Z,14.50
2023-05-14T08:30:36.968Z,14.50
2023-05-14T08:33:05.879Z,14.60
2023-05-14T08:35:35.293Z,14.60
2023-05-14T08:38:03.594Z,14.60
2023-05-14T08:40:32.822Z,14.80
2023-05-14T08:43:03.585Z,14.80
2023-05-14T08:45:36.238Z,15.00
2023-05-14T08:48:11.065Z,15.00
2023-05-14T08:50:45.907Z,15.10
2023-05-14T08:53:13.900Z,15.10
2023-05-14T08:55:47.542Z,15.10
2023-05-14T08:58:15.709Z,15.10
2023-05-14T09:00:52.535Z,15.10
2023-05-14T09:03:23.214Z,15.30
2023-05-14T09:05:53.192Z,15.40
2023-05-14T09:08:22.886Z,15.40
2023-05-14T09:10:52.637Z,15.30
2023-05-14T09:13:20.600Z,15.40
2023-05-14T09:15:54.740Z,15.30
2023-05-14T09:18:32.394Z,15.20
2023-05-14T09:21:01.412Z,15.20
2023-05-14T09:23:33.798Z,15.30
2023-05-14T09:26:06.719Z,15.50
2023-05-14T09:28:35.334Z,15.50
2023-05-14T09:31:05.093Z,15.50
2023-05-14T09:33:33.312Z,15.60
2023-05-14T09:36:01.620Z,15.60
2023-05-14T09:38:36.217Z,15.60
2023-05-14T09:41:04.199Z,15.60
2023-05-14T09:43:32.112Z,15.50
2023-05-14T09:46:00.191Z,15.50
2023-05-14T09:48:29.937Z,15.50
2023-05-14T09:50:59.985Z,15.60
2023-05-14T09:53:31.160Z,15.70
2023-05-14T09:55:59.275Z,15.80
2023-05-14T09:58:27.677Z,15.90
2023-05-14T10:00:59.140Z,15.90
2023-05-14T10:03:32.089Z,15.80
2023-05-14T10:06:03.762Z,15.80
2023-05-14T10:08:35.184Z,15.80
2023-05-14T10:11:08.003Z,15.80
2023-05-14T10:13:41.548Z,15.80
2023-05-14T10:16:20.039Z,15.80
2023-05-14T10:18:58.412Z,15.80
2023-05-14T10:21:30.007Z,15.70
2023-05-14T10:23:59.402Z,15.70
2023-05-14T10:26:28.024Z,15.80
2023-05-14T10:28:56.338Z,15.80
2023-05-14T10:31:25.134Z,15.70
2023-05-14T10:33:55.001Z,15.70
2023-05-14T10:36:23.948Z,15.80
2023-05-14T10:38:58.208Z,15.90
2023-05-14T10:41:26.532Z,15.90
2023-05-14T10:43:54.912Z,15.90
2023-05-14T10:46:23.347Z,16.00
2023-05-14T10:48:52.717Z,16.00
2023-05-14T10:51:23.092Z,16.10
2023-05-14T10:53:53.592Z,16.20
2023-05-14T10:56:22.244Z,16.20
2023-05-14T10:58:51.586Z,16.10
2023-05-14T11:01:19.547Z,16.20
2023-05-14T11:03:48.093Z,16.20
2023-05-14T11:06:17.853Z,16.20
2023-05-14T11:08:49.356Z,16.10
2023-05-14T11:11:19.778Z,16.10
2023-05-14T11:13:50.034Z,16.10
2023-05-14T11:16:23.356Z,16.20
2023-05-14T11:19:01.670Z,16.20
2023-05-14T11:21:30.085Z,16.10
2023-05-14T11:24:01.461Z,16.10
2023-05-14T11:26:29.735Z,16.10
2023-05-14T11:28:58.860Z,16.30
2023-05-14T11:31:26.967Z,16.40
2023-05-14T11:33:55.779Z,16.50
2023-05-14T11:36:23.838Z,16.50
2023-05-14T11:38:52.447Z,16.40
2023-05-14T11:41:23.093Z,16.40
2023-05-14T11:43:52.000Z,16.40
2023-05-14T11:46:20.617Z,16.40
2023-05-14T11:48:49.005Z,16.50
2023-05-14T11:51:17.311Z,16.60
2023-05-14T11:53:47.896Z,16.70
2023-05-14T11:56:16.019Z,16.70
2023-05-14T11:58:53.001Z,16.70
2023-05-14T12:01:21.418Z,16.60
2023-05-14T12:03:49.907Z,16.50
2023-05-14T12:06:20.126Z,16.50
2023-05-14T12:08:49.374Z,16.60
2023-05-14T12:11:22.316Z,16.60
2023-05-14T12:13:51.679Z,16.60
2023-05-14T12:16:21.991Z,16.60
2023-05-14T12:18:50.723Z,16.70
2023-05-14T12:21:18.945Z,16.80
2023-05-14T12:23:49.501Z,17.00
2023-05-14T12:26:17.500Z,17.00
2023-05-14T12:28:49.138Z,17.10
2023-05-14T12:31:18.628Z,17.10
2023-05-14T12:33:46.565Z,17.20
2023-05-14T12:38:48.194Z,17.20
2023-05-14T12:41:16.127Z,17.20
2023-05-14T12:43:45.139Z,17.30
2023-05-14T12:46:13.113Z,17.50
2023-05-14T12:48:43.166Z,17.50
2023-05-14T12:51:11.111Z,17.50
2023-05-14T12:53:39.126Z,17.50
2023-05-14T12:56:08.016Z,17.50
2023-05-14T12:58:36.680Z,17.50
2023-05-14T13:01:05.819Z,17.50
2023-05-14T13:03:34.615Z,17.50
2023-05-14T13:06:03.968Z,17.40
2023-05-14T13:08:31.954Z,17.40
2023-05-14T13:11:00.319Z,17.40
2023-05-14T13:13:28.517Z,17.50
2023-05-14T13:15:57.682Z,17.60
2023-05-14T13:18:26.620Z,17.70
2023-05-14T13:20:55.928Z,17.80
2023-05-14T13:23:25.698Z,17.80
2023-05-14T13:25:53.755Z,17.60
2023-05-14T13:28:22.894Z,17.50
2023-05-14T13:31:06.149Z,17.50
2023-05-14T13:33:35.824Z,17.30
2023-05-14T13:36:04.203Z,17.40
2023-05-14T13:38:33.586Z,17.50
2023-05-14T13:41:03.015Z,17.50
2023-05-14T13:43:31.367Z,17.60
2023-05-14T13:45:59.676Z,17.60
2023-05-14T13:48:28.225Z,17.60
2023-05-14T13:50:57.625Z,17.60
2023-05-14T13:53:26.560Z,17.70
2023-05-14T13:55:58.383Z,17.60
2023-05-14T13:58:27.046Z,17.60
2023-05-14T14:00:55.194Z,17.60
2023-05-14T14:03:23.128Z,17.60
2023-05-14T14:05:51.653Z,17.70
2023-05-14T14:08:24.054Z,17.70
2023-05-14T14:10:55.136Z,17.60
2023-05-14T14:13:24.735Z,17.60
2023-05-14T14:15:52.949Z,17.60
2023-05-14T14:18:21.486Z,17.80
2023-05-14T14:20:49.685Z,17.90
2023-05-14T14:23:17.942Z,17.90
2023-05-14T14:25:46.039Z,17.90
2023-05-14T14:28:14.105Z,17.90
2023-05-14T14:30:43.926Z,18.00
2023-05-14T14:33:12.620Z,18.20
2023-05-14T14:35:41.346Z,18.20
2023-05-14T14:38:10.515Z,18.30
2023-05-14T14:40:38.618Z,18.40
2023-05-14T14:43:07.048Z,18.40
2023-05-14T14:45:35.724Z,18.30
2023-05-14T14:48:33.888Z,18.20
2023-05-14T14:51:02.227Z,18.20
2023-05-14T14:53:31.153Z,18.10
2023-05-14T14:56:00.461Z,18.10
2023-05-14T14:58:28.560Z,18.10
2023-05-14T15:00:58.177Z,18.20
2023-05-14T15:03:26.707Z,18.20
2023-05-14T15:05:56.301Z,18.30
2023-05-14T15:08:28.082Z,18.30
2023-05-14T15:10:56.116Z,18.30
2023-05-14T15:13:24.628Z,18.30
2023-05-14T15:15:53.279Z,18.30
2023-05-14T15:18:21.642Z,18.20
2023-05-14T15:20:50.030Z,18.20
2023-05-14T15:23:19.543Z,18.20
2023-05-14T15:25:47.498Z,18.20
2023-05-14T15:28:15.570Z,18.20
2023-05-14T15:30:43.512Z,18.20
2023-05-14T15:33:11.609Z,18.10
2023-05-14T15:35:41.901Z,18.10
2023-05-14T15:38:09.963Z,18.10
2023-05-14T15:40:39.816Z,18.10
2023-05-14T15:43:08.902Z,18.10
2023-05-14T15:45:36.900Z,18.00
2023-05-14T15:48:06.219Z,18.10
2023-05-14T15:50:34.383Z,18.10
2023-05-14T15:53:02.415Z,18.10
2023-05-14T15:55:30.436Z,18.20
2023-05-14T15:57:59.822Z,18.10
2023-05-14T16:00:27.707Z,18.10
2023-05-14T16:02:56.417Z,18.00
2023-05-14T16:05:24.775Z,18.00
2023-05-14T16:07:55.331Z,17.80
2023-05-14T16:10:23.835Z,17.80
2023-05-14T16:12:51.992Z,17.80
2023-05-14T16:15:22.204Z,17.80
2023-05-14T16:17:50.213Z,17.60
2023-05-14T16:20:18.211Z,17.50
2023-05-14T16:22:46.503Z,17.50
2023-05-14T16:25:14.476Z,17.50
2023-05-14T16:27:42.594Z,17.40
2023-05-14T16:30:11.732Z,17.40
2023-05-14T16:32:42.006Z,17.30
2023-05-14T16:35:10.877Z,17.20
2023-05-14T16:37:38.929Z,17.20
2023-05-14T16:40:11.494Z,17.10
2023-05-14T16:42:39.480Z,17.20
2023-05-14T16:45:08.728Z,17.20
2023-05-14T16:47:36.876Z,17.20
2023-05-14T16:50:08.230Z,17.10
2023-05-14T16:52:36.462Z,17.10
2023-05-14T16:55:07.480Z,17.00
2023-05-14T16:57:37.098Z,17.00
2023-05-14T17:00:06.517Z,16.90
2023-05-14T17:02:34.960Z,16.70
2023-05-14T17:05:04.432Z,16.50
2023-05-14T17:07:46.259Z,16.30
2023-05-14T17:10:15.544Z,16.20
2023-05-14T17:12:46.928Z,16.10
2023-05-14T17:15:15.020Z,15.90
2023-05-14T17:17:43.429Z,15.80
2023-05-14T17:20:14.142Z,15.70
2023-05-14T17:22:46.664Z,15.70
2023-05-14T17:25:15.528Z,15.70
2023-05-14T17:27:43.907Z,15.70
2023-05-14T17:30:12.569Z,15.60
2023-05-14T17:32:40.662Z,15.60
2023-05-14T17:35:10.468Z,15.50
2023-05-14T17:37:40.007Z,15.50
2023-05-14T17:40:10.575Z,15.40
2023-05-14T17:42:38.583Z,15.40
2023-05-14T17:45:07.925Z,15.20
2023-05-14T17:47:36.109Z,15.10
2023-05-14T17:50:04.379Z,15.10
2023-05-14T17:52:32.901Z,15.10
2023-05-14T17:55:00.910Z,15.10
2023-05-14T17:57:30.332Z,15.00
2023-05-14T17:59:58.355Z,15.00
2023-05-14T18:02:26.718Z,14.90
2023-05-14T18:04:54.707Z,14.90
2023-05-14T18:07:23.040Z,14.80
2023-05-14T18:09:51.181Z,14.70
2023-05-14T18:12:19.324Z,14.70
2023-05-14T18:14:48.814Z,14.60
2023-05-14T18:17:17.246Z,14.60
2023-05-14T18:19:45.545Z,14.50
2023-05-14T18:22:13.532Z,14.50
2023-05-14T18:24:41.801Z,14.40
2023-05-14T18:27:09.966Z,14.40
2023-05-14T18:29:37.999Z,14.40
2023-05-14T18:32:08.066Z,14.40
2023-05-14T18:34:36.030Z,14.30
2023-05-14T18:37:04.115Z,14.10
2023-05-14T18:39:32.068Z,14.10
2023-05-14T18:42:00.067Z,14.00
2023-05-14T18:44:28.037Z,14.00
2023-05-14T18:46:56.266Z,14.00
2023-05-14T18:49:25.649Z,14.00
2023-05-14T18:51:53.658Z,13.90
2023-05-14T18:54:21.664Z,13.80
2023-05-14T18:56:49.765Z,13.80
2023-05-14T18:59:18.135Z,13.80
2023-05-14T19:01:46.237Z,13.70
2023-05-14T19:04:14.468Z,13.70
2023-05-14T19:06:43.837Z,13.60
2023-05-14T19:09:11.873Z,13.60
2023-05-14T19:11:42.352Z,13.60
2023-05-14T19:14:11.348Z,13.60
2023-05-14T19:16:39.555Z,13.60
2023-05-14T19:19:08.089Z,13.70
2023-05-14T19:21:36.167Z,13.60
2023-05-14T19:24:06.172Z,13.70
2023-05-14T19:26:34.233Z,13.60
2023-05-14T19:29:02.223Z,13.60
2023-05-14T19:31:30.233Z,13.60
2023-05-14T19:33:58.613Z,13.60
2023-05-14T19:36:26.655Z,13.70
2023-05-14T19:38:54.636Z,13.70
2023-05-14T19:41:24.037Z,13.70
2023-05-14T19:43:52.073Z,13.70
2023-05-14T19:46:20.188Z,13.60
2023-05-14T19:48:48.543Z,13.60
2023-05-14T19:51:16.652Z,13.60
2023-05-14T19:53:45.224Z,13.50
2023-05-14T19:56:13.330Z,13.50
2023-05-14T19:58:42.660Z,13.50
2023-05-14T20:01:12.008Z,13.50
2023-05-14T20:03:40.094Z,13.50
2023-05-14T20:06:08.185Z,13.40
2023-05-14T20:08:36.212Z,13.40
2023-05-14T20:11:04.307Z,13.40
2023-05-14T20:13:33.051Z,13.50
2023-05-14T20:16:02.991Z,13.50
2023-05-14T20:18:31.129Z,13.50
2023-05-14T20:20:59.158Z,13.50
2023-05-14T20:23:27.251Z,13.50
2023-05-14T20:25:55.567Z,13.40
2023-05-14T20:28:23.535Z,13.40
2023-05-14T20:30:52.159Z,13.40
2023-05-14T20:33:21.947Z,13.30
2023-05-14T20:35:49.931Z,13.30
2023-05-14T20:38:18.460Z,13.30
2023-05-14T20:40:46.484Z,13.30
2023-05-14T20:43:14.540Z,13.30
2023-05-14T20:45:42.521Z,13.30
2023-05-14T20:48:12.172Z,13.30
2023-05-14T20:50:41.589Z,13.30
2023-05-14T20:53:09.601Z,13.30
2023-05-14T20:55:37.538Z,13.40
2023-05-14T20:58:05.571Z,13.40
2023-05-14T21:00:43.576Z,13.40
2023-05-14T21:03:11.642Z,13.40
2023-05-14T21:05:42.033Z,13.30
2023-05-14T21:08:10.014Z,13.30
2023-05-14T21:10:37.957Z,13.30
2023-05-14T21:13:07.055Z,13.30
2023-05-14T21:15:35.123Z,13.30
2023-05-14T21:18:03.756Z,13.20
2023-05-14T21:20:31.734Z,13.20
2023-05-14T21:23:01.048Z,13.20
2023-05-14T21:25:29.134Z,13.20
2023-05-14T21:27:57.256Z,13.10
2023-05-14T21:30:25.328Z,13.10
2023-05-14T21:32:53.246Z,13.10
2023-05-14T21:35:22.058Z,13.10
2023-05-14T21:37:50.095Z,13.20
2023-05-14T21:40:19.506Z,13.30
2023-05-14T21:42:47.468Z,13.30
2023-05-14T21:45:15.461Z,13.20
2023-05-14T21:47:43.700Z,13.20
2023-05-14T21:50:13.024Z,13.10
2023-05-14T21:52:41.247Z,13.10
2023-05-14T21:55:10.155Z,13.00
2023-05-14T21:57:39.524Z,12.90
2023-05-14T22:00:12.876Z,12.90
2023-05-14T22:02:41.064Z,12.90
2023-05-14T22:05:09.363Z,12.90
2023-05-14T22:07:37.322Z,12.90
2023-05-14T22:10:05.715Z,12.90
2023-05-14T22:12:33.713Z,12.90
2023-05-14T22:15:03.798Z,12.90
2023-05-14T22:17:32.832Z,13.00
2023-05-14T22:20:00.908Z,13.10
2023-05-14T22:22:28.965Z,13.20
2023-05-14T22:24:57.113Z,13.20
2023-05-14T22:27:25.009Z,13.10
2023-05-14T22:29:55.087Z,13.10
2023-05-14T22:32:24.568Z,13.00
2023-05-14T22:34:52.557Z,13.00
2023-05-14T22:37:20.632Z,12.90
2023-05-14T22:39:48.814Z,12.90
2023-05-14T22:42:16.778Z,12.90
2023-05-14T22:44:45.126Z,13.00
2023-05-14T22:47:13.171Z,13.00
2023-05-14T22:49:43.687Z,12.90
2023-05-14T22:52:11.706Z,12.90
2023-05-14T22:54:39.703Z,12.90
2023-05-14T22:57:07.794Z,12.90
2023-05-14T22:59:35.762Z,12.90
2023-05-14T23:02:03.841Z,13.00
2023-05-14T23:04:31.929Z,13.00
2023-05-14T23:07:01.312Z,12.90
2023-05-14T23:09:30.205Z,12.90
2023-05-14T23:11:58.308Z,12.90
2023-05-14T23:14:26.239Z,12.90
2023-05-14T23:16:55.693Z,13.00
2023-05-14T23:19:24.026Z,13.00
2023-05-14T23:21:52.048Z,13.10
2023-05-14T23:24:22.245Z,13.10
2023-05-14T23:26:50.289Z,13.20
2023-05-14T23:29:18.654Z,13.20
2023-05-14T23:31:46.669Z,13.20
2023-05-14T23:34:14.804Z,13.20
2023-05-14T23:36:42.918Z,13.20
2023-05-14T23:39:10.858Z,13.10
2023-05-14T23:41:40.279Z,13.10
2023-05-14T23:44:08.846Z,13.10
2023-05-14T23:46:36.928Z,13.20
2023-05-14T23:49:05.165Z,13.10
2023-05-14T23:51:33.346Z,13.10
2023-05-14T23:54:02.745Z,13.10
2023-05-14T23:56:30.936Z,13.10
2023-05-14T23:59:00.279Z,13.10
